sensor_id;sensor_type;location;lat;lon;timestamp;P1;durP1;ratioP1;P2;durP2;ratioP2
25023;SDS011;13033;50.936;5.334;2023-03-01T00:01:48;14.90;;;9.05;;
25023;SDS011;13033;50.936;5.334;2023-03-01T00:04:13;14.65;;;8.73;;
25023;SDS011;13033;50.936;5.334;2023-03-01T00:06:39;11.52;;;8.55;;
25023;SDS011;13033;50.936;5.334;2023-03-01T00:09:07;13.80;;;9.02;;
25023;SDS011;13033;50.936;5.334;2023-03-01T00:11:33;15.82;;;8.55;;
25023;SDS011;13033;50.936;5.334;2023-03-01T00:13:59;11.27;;;8.13;;
25023;SDS011;13033;50.936;5.334;2023-03-01T00:16:27;11.52;;;7.90;;
25023;SDS011;13033;50.936;5.334;2023-03-01T00:18:55;13.25;;;9.00;;
25023;SDS011;13033;50.936;5.334;2023-03-01T00:21:22;13.25;;;8.77;;
25023;SDS011;13033;50.936;5.334;2023-03-01T00:23:48;12.25;;;8.60;;
25023;SDS011;13033;50.936;5.334;2023-03-01T00:26:15;12.73;;;8.52;;
25023;SDS011;13033;50.936;5.334;2023-03-01T00:28:42;16.02;;;8.50;;
25023;SDS011;13033;50.936;5.334;2023-03-01T00:31:09;15.27;;;9.07;;
25023;SDS011;13033;50.936;5.334;2023-03-01T00:33:36;18.13;;;9.20;;
25023;SDS011;13033;50.936;5.334;2023-03-01T00:36:02;15.88;;;9.13;;
25023;SDS011;13033;50.936;5.334;2023-03-01T00:38:28;13.27;;;8.75;;
25023;SDS011;13033;50.936;5.334;2023-03-01T00:40:54;15.18;;;8.82;;
25023;SDS011;13033;50.936;5.334;2023-03-01T00:43:20;13.30;;;8.65;;
25023;SDS011;13033;50.936;5.334;2023-03-01T00:45:46;12.90;;;8.57;;
25023;SDS011;13033;50.936;5.334;2023-03-01T00:48:11;12.73;;;8.77;;
25023;SDS011;13033;50.936;5.334;2023-03-01T00:50:37;13.95;;;8.82;;
25023;SDS011;13033;50.936;5.334;2023-03-01T00:53:03;14.60;;;9.45;;
25023;SDS011;13033;50.936;5.334;2023-03-01T00:55:30;14.82;;;9.20;;
25023;SDS011;13033;50.936;5.334;2023-03-01T00:57:56;14.85;;;9.15;;
25023;SDS011;13033;50.936;5.334;2023-03-01T01:00:21;14.23;;;8.50;;
25023;SDS011;13033;50.936;5.334;2023-03-01T01:02:47;15.27;;;9.18;;
25023;SDS011;13033;50.936;5.334;2023-03-01T01:05:13;13.32;;;8.30;;
25023;SDS011;13033;50.936;5.334;2023-03-01T01:07:39;14.15;;;8.88;;
25023;SDS011;13033;50.936;5.334;2023-03-01T01:10:05;11.75;;;8.23;;
25023;SDS011;13033;50.936;5.334;2023-03-01T01:12:31;16.38;;;9.63;;
25023;SDS011;13033;50.936;5.334;2023-03-01T01:14:57;13.35;;;9.20;;
25023;SDS011;13033;50.936;5.334;2023-03-01T01:17:23;12.85;;;8.60;;
25023;SDS011;13033;50.936;5.334;2023-03-01T01:19:49;17.50;;;8.93;;
25023;SDS011;13033;50.936;5.334;2023-03-01T01:22:15;14.40;;;8.85;;
25023;SDS011;13033;50.936;5.334;2023-03-01T01:24:40;15.50;;;8.63;;
25023;SDS011;13033;50.936;5.334;2023-03-01T01:27:06;12.55;;;8.35;;
25023;SDS011;13033;50.936;5.334;2023-03-01T01:29:32;12.70;;;9.13;;
25023;SDS011;13033;50.936;5.334;2023-03-01T01:31:58;13.95;;;8.50;;
25023;SDS011;13033;50.936;5.334;2023-03-01T01:34:23;14.23;;;8.98;;
25023;SDS011;13033;50.936;5.334;2023-03-01T01:36:52;14.48;;;9.27;;
25023;SDS011;13033;50.936;5.334;2023-03-01T01:39:19;16.10;;;9.75;;
25023;SDS011;13033;50.936;5.334;2023-03-01T01:41:45;15.13;;;9.25;;
25023;SDS011;13033;50.936;5.334;2023-03-01T01:49:42;14.13;;;9.40;;
25023;SDS011;13033;50.936;5.334;2023-03-01T01:52:29;12.55;;;9.00;;
25023;SDS011;13033;50.936;5.334;2023-03-01T01:55:08;12.63;;;9.48;;
25023;SDS011;13033;50.936;5.334;2023-03-01T01:57:44;16.27;;;9.60;;
25023;SDS011;13033;50.936;5.334;2023-03-01T02:00:19;14.50;;;9.48;;
25023;SDS011;13033;50.936;5.334;2023-03-01T02:02:47;15.15;;;9.88;;
25023;SDS011;13033;50.936;5.334;2023-03-01T02:05:28;15.55;;;9.88;;
25023;SDS011;13033;50.936;5.334;2023-03-01T02:08:17;13.32;;;9.25;;
25023;SDS011;13033;50.936;5.334;2023-03-01T02:10:45;17.25;;;9.25;;
25023;SDS011;13033;50.936;5.334;2023-03-01T02:13:11;15.90;;;9.75;;
25023;SDS011;13033;50.936;5.334;2023-03-01T02:15:38;14.40;;;9.48;;
25023;SDS011;13033;50.936;5.334;2023-03-01T02:18:05;16.45;;;10.15;;
25023;SDS011;13033;50.936;5.334;2023-03-01T02:23:19;13.05;;;9.50;;
25023;SDS011;13033;50.936;5.334;2023-03-01T02:28:33;16.90;;;9.98;;
25023;SDS011;13033;50.936;5.334;2023-03-01T02:31:01;15.68;;;9.70;;
25023;SDS011;13033;50.936;5.334;2023-03-01T02:33:47;14.65;;;9.70;;
25023;SDS011;13033;50.936;5.334;2023-03-01T02:36:17;17.27;;;10.15;;
25023;SDS011;13033;50.936;5.334;2023-03-01T02:38:45;14.95;;;9.77;;
25023;SDS011;13033;50.936;5.334;2023-03-01T02:41:13;16.05;;;10.05;;
25023;SDS011;13033;50.936;5.334;2023-03-01T02:43:41;15.63;;;10.10;;
25023;SDS011;13033;50.936;5.334;2023-03-01T02:46:12;16.75;;;10.25;;
25023;SDS011;13033;50.936;5.334;2023-03-01T02:48:45;16.95;;;10.40;;
25023;SDS011;13033;50.936;5.334;2023-03-01T02:56:43;15.07;;;10.27;;
25023;SDS011;13033;50.936;5.334;2023-03-01T02:59:13;15.00;;;10.05;;
25023;SDS011;13033;50.936;5.334;2023-03-01T03:01:38;16.80;;;10.65;;
25023;SDS011;13033;50.936;5.334;2023-03-01T03:04:11;15.45;;;10.25;;
25023;SDS011;13033;50.936;5.334;2023-03-01T03:06:46;14.48;;;9.52;;
25023;SDS011;13033;50.936;5.334;2023-03-01T03:09:13;13.70;;;9.85;;
25023;SDS011;13033;50.936;5.334;2023-03-01T03:11:40;16.30;;;10.82;;
25023;SDS011;13033;50.936;5.334;2023-03-01T03:14:08;15.10;;;10.50;;
25023;SDS011;13033;50.936;5.334;2023-03-01T03:16:42;16.50;;;10.27;;
25023;SDS011;13033;50.936;5.334;2023-03-01T03:19:09;18.25;;;10.55;;
25023;SDS011;13033;50.936;5.334;2023-03-01T03:21:35;18.70;;;11.15;;
25023;SDS011;13033;50.936;5.334;2023-03-01T03:24:02;15.93;;;10.90;;
25023;SDS011;13033;50.936;5.334;2023-03-01T03:26:28;17.20;;;10.43;;
25023;SDS011;13033;50.936;5.334;2023-03-01T03:28:54;17.05;;;11.18;;
25023;SDS011;13033;50.936;5.334;2023-03-01T03:31:20;16.27;;;10.90;;
25023;SDS011;13033;50.936;5.334;2023-03-01T03:33:46;15.80;;;10.88;;
25023;SDS011;13033;50.936;5.334;2023-03-01T03:36:21;16.02;;;11.07;;
25023;SDS011;13033;50.936;5.334;2023-03-01T03:38:48;17.83;;;10.48;;
25023;SDS011;13033;50.936;5.334;2023-03-01T03:41:14;19.38;;;11.15;;
25023;SDS011;13033;50.936;5.334;2023-03-01T03:43:42;18.30;;;11.55;;
25023;SDS011;13033;50.936;5.334;2023-03-01T03:46:09;23.55;;;11.07;;
25023;SDS011;13033;50.936;5.334;2023-03-01T03:48:36;18.75;;;10.98;;
25023;SDS011;13033;50.936;5.334;2023-03-01T03:51:04;17.33;;;10.57;;
25023;SDS011;13033;50.936;5.334;2023-03-01T03:53:33;16.35;;;10.85;;
25023;SDS011;13033;50.936;5.334;2023-03-01T03:55:58;23.88;;;11.38;;
25023;SDS011;13033;50.936;5.334;2023-03-01T03:58:24;20.15;;;11.82;;
25023;SDS011;13033;50.936;5.334;2023-03-01T04:00:52;15.57;;;10.68;;
25023;SDS011;13033;50.936;5.334;2023-03-01T04:03:21;21.92;;;11.85;;
25023;SDS011;13033;50.936;5.334;2023-03-01T04:05:47;23.35;;;12.27;;
25023;SDS011;13033;50.936;5.334;2023-03-01T04:08:15;18.55;;;11.38;;
25023;SDS011;13033;50.936;5.334;2023-03-01T04:10:43;17.40;;;11.73;;
25023;SDS011;13033;50.936;5.334;2023-03-01T04:13:10;18.58;;;11.57;;
25023;SDS011;13033;50.936;5.334;2023-03-01T04:15:38;25.58;;;12.13;;
25023;SDS011;13033;50.936;5.334;2023-03-01T04:18:05;18.98;;;11.55;;
25023;SDS011;13033;50.936;5.334;2023-03-01T04:20:32;17.25;;;11.55;;
25023;SDS011;13033;50.936;5.334;2023-03-01T04:23:01;20.73;;;11.60;;
25023;SDS011;13033;50.936;5.334;2023-03-01T04:25:50;19.00;;;11.77;;
25023;SDS011;13033;50.936;5.334;2023-03-01T04:28:25;19.35;;;11.85;;
25023;SDS011;13033;50.936;5.334;2023-03-01T04:31:01;18.40;;;11.30;;
25023;SDS011;13033;50.936;5.334;2023-03-01T04:33:46;16.40;;;11.10;;
25023;SDS011;13033;50.936;5.334;2023-03-01T04:36:16;20.70;;;11.80;;
25023;SDS011;13033;50.936;5.334;2023-03-01T04:38:43;18.15;;;11.65;;
25023;SDS011;13033;50.936;5.334;2023-03-01T04:41:13;17.95;;;11.90;;
25023;SDS011;13033;50.936;5.334;2023-03-01T04:43:40;20.27;;;12.25;;
25023;SDS011;13033;50.936;5.334;2023-03-01T04:46:07;18.88;;;12.00;;
25023;SDS011;13033;50.936;5.334;2023-03-01T04:48:37;18.73;;;12.65;;
25023;SDS011;13033;50.936;5.334;2023-03-01T04:51:04;20.15;;;12.95;;
25023;SDS011;13033;50.936;5.334;2023-03-01T04:53:31;18.75;;;12.70;;
25023;SDS011;13033;50.936;5.334;2023-03-01T04:55:57;20.17;;;11.23;;
25023;SDS011;13033;50.936;5.334;2023-03-01T04:58:24;19.27;;;11.98;;
25023;SDS011;13033;50.936;5.334;2023-03-01T05:00:51;22.65;;;12.30;;
25023;SDS011;13033;50.936;5.334;2023-03-01T05:03:18;20.00;;;11.80;;
25023;SDS011;13033;50.936;5.334;2023-03-01T05:05:45;19.45;;;12.20;;
25023;SDS011;13033;50.936;5.334;2023-03-01T05:08:13;21.40;;;12.50;;
25023;SDS011;13033;50.936;5.334;2023-03-01T05:10:51;25.38;;;12.45;;
25023;SDS011;13033;50.936;5.334;2023-03-01T05:13:18;20.70;;;12.07;;
25023;SDS011;13033;50.936;5.334;2023-03-01T05:15:48;18.83;;;12.63;;
25023;SDS011;13033;50.936;5.334;2023-03-01T05:18:20;19.42;;;11.82;;
25023;SDS011;13033;50.936;5.334;2023-03-01T05:20:46;19.02;;;12.30;;
25023;SDS011;13033;50.936;5.334;2023-03-01T05:23:12;21.88;;;12.38;;
25023;SDS011;13033;50.936;5.334;2023-03-01T05:25:38;20.90;;;12.57;;
25023;SDS011;13033;50.936;5.334;2023-03-01T05:28:05;26.23;;;13.20;;
25023;SDS011;13033;50.936;5.334;2023-03-01T05:30:34;23.48;;;12.68;;
25023;SDS011;13033;50.936;5.334;2023-03-01T05:33:01;23.25;;;12.43;;
25023;SDS011;13033;50.936;5.334;2023-03-01T05:35:27;26.60;;;13.15;;
25023;SDS011;13033;50.936;5.334;2023-03-01T05:37:54;20.75;;;12.73;;
25023;SDS011;13033;50.936;5.334;2023-03-01T05:40:20;24.92;;;12.68;;
25023;SDS011;13033;50.936;5.334;2023-03-01T05:42:49;28.77;;;13.57;;
25023;SDS011;13033;50.936;5.334;2023-03-01T05:45:20;20.63;;;12.10;;
25023;SDS011;13033;50.936;5.334;2023-03-01T05:47:47;23.67;;;12.57;;
25023;SDS011;13033;50.936;5.334;2023-03-01T05:50:14;21.42;;;13.02;;
25023;SDS011;13033;50.936;5.334;2023-03-01T05:52:49;20.88;;;12.50;;
25023;SDS011;13033;50.936;5.334;2023-03-01T05:57:43;21.23;;;11.68;;
25023;SDS011;13033;50.936;5.334;2023-03-01T06:00:09;21.23;;;12.35;;
25023;SDS011;13033;50.936;5.334;2023-03-01T06:02:36;23.75;;;12.15;;
25023;SDS011;13033;50.936;5.334;2023-03-01T06:05:02;20.95;;;12.77;;
25023;SDS011;13033;50.936;5.334;2023-03-01T06:07:29;21.67;;;12.68;;
25023;SDS011;13033;50.936;5.334;2023-03-01T06:09:55;20.55;;;12.65;;
25023;SDS011;13033;50.936;5.334;2023-03-01T06:12:21;22.85;;;13.13;;
25023;SDS011;13033;50.936;5.334;2023-03-01T06:14:46;24.33;;;14.15;;
25023;SDS011;13033;50.936;5.334;2023-03-01T06:17:12;24.98;;;13.90;;
25023;SDS011;13033;50.936;5.334;2023-03-01T06:19:38;21.60;;;13.07;;
25023;SDS011;13033;50.936;5.334;2023-03-01T06:22:04;19.15;;;12.38;;
25023;SDS011;13033;50.936;5.334;2023-03-01T06:24:30;20.92;;;12.55;;
25023;SDS011;13033;50.936;5.334;2023-03-01T06:26:56;20.52;;;13.07;;
25023;SDS011;13033;50.936;5.334;2023-03-01T06:29:21;20.08;;;13.63;;
25023;SDS011;13033;50.936;5.334;2023-03-01T06:31:47;20.45;;;12.45;;
25023;SDS011;13033;50.936;5.334;2023-03-01T06:34:13;19.02;;;12.35;;
25023;SDS011;13033;50.936;5.334;2023-03-01T06:36:39;20.70;;;12.45;;
25023;SDS011;13033;50.936;5.334;2023-03-01T06:39:05;24.60;;;13.35;;
25023;SDS011;13033;50.936;5.334;2023-03-01T06:41:31;23.08;;;13.20;;
25023;SDS011;13033;50.936;5.334;2023-03-01T06:43:58;24.15;;;12.90;;
25023;SDS011;13033;50.936;5.334;2023-03-01T06:46:24;20.17;;;12.90;;
25023;SDS011;13033;50.936;5.334;2023-03-01T06:48:50;19.90;;;13.35;;
25023;SDS011;13033;50.936;5.334;2023-03-01T06:51:15;23.40;;;13.10;;
25023;SDS011;13033;50.936;5.334;2023-03-01T06:53:41;19.25;;;12.40;;
25023;SDS011;13033;50.936;5.334;2023-03-01T06:56:07;21.95;;;13.60;;
25023;SDS011;13033;50.936;5.334;2023-03-01T06:58:32;24.95;;;13.65;;
25023;SDS011;13033;50.936;5.334;2023-03-01T07:00:59;25.48;;;13.40;;
25023;SDS011;13033;50.936;5.334;2023-03-01T07:03:26;24.33;;;14.02;;
25023;SDS011;13033;50.936;5.334;2023-03-01T07:05:51;28.17;;;14.00;;
25023;SDS011;13033;50.936;5.334;2023-03-01T07:08:17;21.92;;;13.63;;
25023;SDS011;13033;50.936;5.334;2023-03-01T07:10:43;21.95;;;13.15;;
25023;SDS011;13033;50.936;5.334;2023-03-01T07:13:09;26.13;;;13.77;;
25023;SDS011;13033;50.936;5.334;2023-03-01T07:15:35;20.55;;;12.88;;
25023;SDS011;13033;50.936;5.334;2023-03-01T07:18:01;26.33;;;13.15;;
25023;SDS011;13033;50.936;5.334;2023-03-01T07:20:27;23.90;;;13.57;;
25023;SDS011;13033;50.936;5.334;2023-03-01T07:22:53;20.38;;;13.55;;
25023;SDS011;13033;50.936;5.334;2023-03-01T07:25:23;25.42;;;13.30;;
25023;SDS011;13033;50.936;5.334;2023-03-01T07:27:50;23.42;;;13.80;;
25023;SDS011;13033;50.936;5.334;2023-03-01T07:30:16;23.58;;;14.13;;
25023;SDS011;13033;50.936;5.334;2023-03-01T07:32:42;23.13;;;14.30;;
25023;SDS011;13033;50.936;5.334;2023-03-01T07:35:08;21.05;;;14.00;;
25023;SDS011;13033;50.936;5.334;2023-03-01T07:37:34;27.73;;;13.38;;
25023;SDS011;13033;50.936;5.334;2023-03-01T07:39:59;22.25;;;13.82;;
25023;SDS011;13033;50.936;5.334;2023-03-01T07:42:25;21.02;;;13.20;;
25023;SDS011;13033;50.936;5.334;2023-03-01T07:44:51;25.58;;;13.07;;
25023;SDS011;13033;50.936;5.334;2023-03-01T07:47:16;22.48;;;13.70;;
25023;SDS011;13033;50.936;5.334;2023-03-01T07:49:42;21.92;;;13.73;;
25023;SDS011;13033;50.936;5.334;2023-03-01T07:52:09;22.88;;;14.15;;
25023;SDS011;13033;50.936;5.334;2023-03-01T07:54:36;21.65;;;13.40;;
25023;SDS011;13033;50.936;5.334;2023-03-01T07:57:02;20.55;;;12.90;;
25023;SDS011;13033;50.936;5.334;2023-03-01T07:59:28;22.00;;;13.30;;
25023;SDS011;13033;50.936;5.334;2023-03-01T08:01:57;22.73;;;13.30;;
25023;SDS011;13033;50.936;5.334;2023-03-01T08:04:23;22.23;;;13.07;;
25023;SDS011;13033;50.936;5.334;2023-03-01T08:06:50;26.83;;;13.75;;
25023;SDS011;13033;50.936;5.334;2023-03-01T08:09:16;20.70;;;13.02;;
25023;SDS011;13033;50.936;5.334;2023-03-01T08:11:42;21.40;;;13.40;;
25023;SDS011;13033;50.936;5.334;2023-03-01T08:14:07;21.33;;;12.88;;
25023;SDS011;13033;50.936;5.334;2023-03-01T08:16:33;21.67;;;13.00;;
25023;SDS011;13033;50.936;5.334;2023-03-01T08:19:07;21.92;;;13.45;;
25023;SDS011;13033;50.936;5.334;2023-03-01T08:21:34;25.67;;;13.23;;
25023;SDS011;13033;50.936;5.334;2023-03-01T08:24:00;22.35;;;13.27;;
25023;SDS011;13033;50.936;5.334;2023-03-01T08:26:26;19.40;;;12.60;;
25023;SDS011;13033;50.936;5.334;2023-03-01T08:28:52;22.40;;;13.15;;
25023;SDS011;13033;50.936;5.334;2023-03-01T08:33:49;21.98;;;12.40;;
25023;SDS011;13033;50.936;5.334;2023-03-01T08:36:20;25.40;;;14.15;;
25023;SDS011;13033;50.936;5.334;2023-03-01T08:38:47;20.45;;;13.88;;
25023;SDS011;13033;50.936;5.334;2023-03-01T08:41:13;23.00;;;13.15;;
25023;SDS011;13033;50.936;5.334;2023-03-01T08:43:39;20.85;;;12.45;;
25023;SDS011;13033;50.936;5.334;2023-03-01T08:46:05;21.90;;;13.25;;
25023;SDS011;13033;50.936;5.334;2023-03-01T08:48:31;23.20;;;12.75;;
25023;SDS011;13033;50.936;5.334;2023-03-01T08:50:56;21.17;;;12.52;;
25023;SDS011;13033;50.936;5.334;2023-03-01T08:53:22;25.73;;;13.10;;
25023;SDS011;13033;50.936;5.334;2023-03-01T08:55:48;20.48;;;12.30;;
25023;SDS011;13033;50.936;5.334;2023-03-01T08:58:13;20.98;;;12.25;;
25023;SDS011;13033;50.936;5.334;2023-03-01T09:00:40;25.15;;;12.60;;
25023;SDS011;13033;50.936;5.334;2023-03-01T09:03:05;17.98;;;12.40;;
25023;SDS011;13033;50.936;5.334;2023-03-01T09:05:31;19.40;;;12.43;;
25023;SDS011;13033;50.936;5.334;2023-03-01T09:07:58;24.13;;;12.88;;
25023;SDS011;13033;50.936;5.334;2023-03-01T09:10:23;20.10;;;13.10;;
25023;SDS011;13033;50.936;5.334;2023-03-01T09:12:49;20.95;;;12.93;;
25023;SDS011;13033;50.936;5.334;2023-03-01T09:15:15;18.13;;;12.23;;
25023;SDS011;13033;50.936;5.334;2023-03-01T09:17:41;21.73;;;12.80;;
25023;SDS011;13033;50.936;5.334;2023-03-01T09:20:07;27.42;;;13.45;;
25023;SDS011;13033;50.936;5.334;2023-03-01T09:22:33;20.80;;;12.10;;
25023;SDS011;13033;50.936;5.334;2023-03-01T09:25:00;21.25;;;12.00;;
25023;SDS011;13033;50.936;5.334;2023-03-01T09:27:26;19.88;;;12.60;;
25023;SDS011;13033;50.936;5.334;2023-03-01T09:29:51;23.10;;;13.15;;
25023;SDS011;13033;50.936;5.334;2023-03-01T09:32:17;20.38;;;11.65;;
25023;SDS011;13033;50.936;5.334;2023-03-01T09:34:43;23.15;;;12.05;;
25023;SDS011;13033;50.936;5.334;2023-03-01T09:37:28;21.40;;;12.40;;
25023;SDS011;13033;50.936;5.334;2023-03-01T09:39:55;19.95;;;12.50;;
25023;SDS011;13033;50.936;5.334;2023-03-01T09:42:21;20.10;;;11.95;;
25023;SDS011;13033;50.936;5.334;2023-03-01T09:44:48;23.00;;;13.02;;
25023;SDS011;13033;50.936;5.334;2023-03-01T09:47:21;18.98;;;11.73;;
25023;SDS011;13033;50.936;5.334;2023-03-01T09:50:02;19.27;;;11.77;;
25023;SDS011;13033;50.936;5.334;2023-03-01T09:55:13;20.83;;;12.73;;
25023;SDS011;13033;50.936;5.334;2023-03-01T09:57:48;24.45;;;13.15;;
25023;SDS011;13033;50.936;5.334;2023-03-01T10:11:21;17.63;;;11.93;;
25023;SDS011;13033;50.936;5.334;2023-03-01T10:16:22;19.55;;;12.35;;
25023;SDS011;13033;50.936;5.334;2023-03-01T10:19:05;21.73;;;12.90;;
25023;SDS011;13033;50.936;5.334;2023-03-01T10:21:41;21.35;;;12.73;;
25023;SDS011;13033;50.936;5.334;2023-03-01T10:24:12;22.63;;;12.40;;
25023;SDS011;13033;50.936;5.334;2023-03-01T10:26:50;17.85;;;12.30;;
25023;SDS011;13033;50.936;5.334;2023-03-01T10:29:22;21.23;;;12.32;;
25023;SDS011;13033;50.936;5.334;2023-03-01T10:31:51;20.92;;;13.73;;
25023;SDS011;13033;50.936;5.334;2023-03-01T10:36:53;26.08;;;13.55;;
25023;SDS011;13033;50.936;5.334;2023-03-01T10:39:23;20.00;;;13.18;;
25023;SDS011;13033;50.936;5.334;2023-03-01T10:44:36;18.48;;;11.30;;
25023;SDS011;13033;50.936;5.334;2023-03-01T10:47:02;20.27;;;12.82;;
25023;SDS011;13033;50.936;5.334;2023-03-01T10:49:27;24.77;;;13.43;;
25023;SDS011;13033;50.936;5.334;2023-03-01T10:51:53;22.55;;;13.50;;
25023;SDS011;13033;50.936;5.334;2023-03-01T10:56:58;20.90;;;13.23;;
25023;SDS011;13033;50.936;5.334;2023-03-01T10:59:30;22.02;;;13.73;;
25023;SDS011;13033;50.936;5.334;2023-03-01T11:02:17;21.25;;;12.80;;
25023;SDS011;13033;50.936;5.334;2023-03-01T11:07:54;18.15;;;12.27;;
25023;SDS011;13033;50.936;5.334;2023-03-01T11:10:25;19.65;;;12.68;;
25023;SDS011;13033;50.936;5.334;2023-03-01T11:13:07;19.52;;;12.95;;
25023;SDS011;13033;50.936;5.334;2023-03-01T11:15:43;22.92;;;12.88;;
25023;SDS011;13033;50.936;5.334;2023-03-01T11:18:23;22.33;;;12.63;;
25023;SDS011;13033;50.936;5.334;2023-03-01T11:20:50;20.58;;;13.15;;
25023;SDS011;13033;50.936;5.334;2023-03-01T11:23:18;25.52;;;13.60;;
25023;SDS011;13033;50.936;5.334;2023-03-01T11:25:49;19.63;;;13.80;;
25023;SDS011;13033;50.936;5.334;2023-03-01T11:28:27;24.67;;;14.00;;
25023;SDS011;13033;50.936;5.334;2023-03-01T11:39:12;20.40;;;12.40;;
25023;SDS011;13033;50.936;5.334;2023-03-01T11:41:48;21.88;;;12.57;;
25023;SDS011;13033;50.936;5.334;2023-03-01T11:44:25;18.05;;;12.30;;
25023;SDS011;13033;50.936;5.334;2023-03-01T11:50:13;17.73;;;11.57;;
25023;SDS011;13033;50.936;5.334;2023-03-01T11:52:58;22.75;;;11.73;;
25023;SDS011;13033;50.936;5.334;2023-03-01T11:58:35;17.05;;;11.93;;
25023;SDS011;13033;50.936;5.334;2023-03-01T12:01:22;16.58;;;11.40;;
25023;SDS011;13033;50.936;5.334;2023-03-01T12:17:51;18.45;;;11.43;;
25023;SDS011;13033;50.936;5.334;2023-03-01T12:42:05;18.38;;;11.88;;
25023;SDS011;13033;50.936;5.334;2023-03-01T12:44:59;21.33;;;12.38;;
25023;SDS011;13033;50.936;5.334;2023-03-01T12:50:01;17.50;;;11.65;;
25023;SDS011;13033;50.936;5.334;2023-03-01T12:58:07;17.90;;;12.18;;
25023;SDS011;13033;50.936;5.334;2023-03-01T13:00:45;16.88;;;12.07;;
25023;SDS011;13033;50.936;5.334;2023-03-01T13:11:51;21.42;;;11.38;;
25023;SDS011;13033;50.936;5.334;2023-03-01T13:16:54;19.38;;;11.95;;
25023;SDS011;13033;50.936;5.334;2023-03-01T13:19:24;18.45;;;11.55;;
25023;SDS011;13033;50.936;5.334;2023-03-01T13:21:52;17.15;;;11.40;;
25023;SDS011;13033;50.936;5.334;2023-03-01T13:24:26;17.77;;;11.20;;
25023;SDS011;13033;50.936;5.334;2023-03-01T13:29:43;21.63;;;11.75;;
25023;SDS011;13033;50.936;5.334;2023-03-01T13:37:31;18.95;;;11.10;;
25023;SDS011;13033;50.936;5.334;2023-03-01T13:39:59;18.67;;;10.95;;
25023;SDS011;13033;50.936;5.334;2023-03-01T13:42:31;17.08;;;10.68;;
25023;SDS011;13033;50.936;5.334;2023-03-01T13:45:12;19.42;;;11.15;;
25023;SDS011;13033;50.936;5.334;2023-03-01T13:47:47;17.60;;;10.98;;
25023;SDS011;13033;50.936;5.334;2023-03-01T13:50:31;16.88;;;11.00;;
25023;SDS011;13033;50.936;5.334;2023-03-01T13:53:03;21.00;;;11.70;;
25023;SDS011;13033;50.936;5.334;2023-03-01T13:55:38;19.33;;;11.23;;
25023;SDS011;13033;50.936;5.334;2023-03-01T14:03:26;17.73;;;11.95;;
25023;SDS011;13033;50.936;5.334;2023-03-01T14:06:14;17.27;;;10.93;;
25023;SDS011;13033;50.936;5.334;2023-03-01T14:08:41;17.13;;;11.00;;
25023;SDS011;13033;50.936;5.334;2023-03-01T14:19:32;16.52;;;10.35;;
25023;SDS011;13033;50.936;5.334;2023-03-01T14:24:56;16.70;;;10.65;;
25023;SDS011;13033;50.936;5.334;2023-03-01T14:27:25;16.08;;;11.13;;
25023;SDS011;13033;50.936;5.334;2023-03-01T14:29:59;18.33;;;10.60;;
25023;SDS011;13033;50.936;5.334;2023-03-01T14:32:27;17.73;;;11.20;;
25023;SDS011;13033;50.936;5.334;2023-03-01T14:34:54;19.00;;;10.93;;
25023;SDS011;13033;50.936;5.334;2023-03-01T14:39:51;19.17;;;9.98;;
25023;SDS011;13033;50.936;5.334;2023-03-01T14:42:18;18.42;;;10.48;;
25023;SDS011;13033;50.936;5.334;2023-03-01T14:44:47;16.85;;;11.30;;
25023;SDS011;13033;50.936;5.334;2023-03-01T14:47:20;14.90;;;10.07;;
25023;SDS011;13033;50.936;5.334;2023-03-01T14:50:17;14.50;;;10.27;;
25023;SDS011;13033;50.936;5.334;2023-03-01T14:52:40;16.15;;;10.90;;
25023;SDS011;13033;50.936;5.334;2023-03-01T14:55:18;19.08;;;10.82;;
25023;SDS011;13033;50.936;5.334;2023-03-01T14:57:50;14.20;;;10.23;;
25023;SDS011;13033;50.936;5.334;2023-03-01T15:00:23;17.77;;;10.70;;
25023;SDS011;13033;50.936;5.334;2023-03-01T15:02:52;15.93;;;10.02;;
25023;SDS011;13033;50.936;5.334;2023-03-01T15:05:24;18.85;;;10.93;;
25023;SDS011;13033;50.936;5.334;2023-03-01T15:08:00;16.13;;;10.10;;
25023;SDS011;13033;50.936;5.334;2023-03-01T15:10:28;14.50;;;9.30;;
25023;SDS011;13033;50.936;5.334;2023-03-01T15:12:56;14.77;;;10.02;;
25023;SDS011;13033;50.936;5.334;2023-03-01T15:15:35;16.00;;;10.65;;
25023;SDS011;13033;50.936;5.334;2023-03-01T15:18:04;18.67;;;10.38;;
25023;SDS011;13033;50.936;5.334;2023-03-01T15:20:45;14.40;;;10.43;;
25023;SDS011;13033;50.936;5.334;2023-03-01T15:23:18;15.93;;;10.20;;
25023;SDS011;13033;50.936;5.334;2023-03-01T15:25:52;21.85;;;10.07;;
25023;SDS011;13033;50.936;5.334;2023-03-01T15:28:23;12.25;;;8.48;;
25023;SDS011;13033;50.936;5.334;2023-03-01T15:30:53;19.75;;;9.13;;
25023;SDS011;13033;50.936;5.334;2023-03-01T15:33:37;14.82;;;8.98;;
25023;SDS011;13033;50.936;5.334;2023-03-01T15:36:29;14.70;;;8.70;;
25023;SDS011;13033;50.936;5.334;2023-03-01T15:39:22;13.05;;;9.23;;
25023;SDS011;13033;50.936;5.334;2023-03-01T15:42:09;14.05;;;8.93;;
25023;SDS011;13033;50.936;5.334;2023-03-01T15:44:36;17.65;;;8.93;;
25023;SDS011;13033;50.936;5.334;2023-03-01T15:47:06;12.68;;;8.18;;
25023;SDS011;13033;50.936;5.334;2023-03-01T15:49:47;13.07;;;8.50;;
25023;SDS011;13033;50.936;5.334;2023-03-01T15:52:24;12.80;;;8.23;;
25023;SDS011;13033;50.936;5.334;2023-03-01T15:54:59;14.50;;;8.98;;
25023;SDS011;13033;50.936;5.334;2023-03-01T15:57:30;13.10;;;8.23;;
25023;SDS011;13033;50.936;5.334;2023-03-01T15:59:56;14.32;;;7.72;;
25023;SDS011;13033;50.936;5.334;2023-03-01T16:02:22;11.00;;;7.25;;
25023;SDS011;13033;50.936;5.334;2023-03-01T16:04:49;14.73;;;7.72;;
25023;SDS011;13033;50.936;5.334;2023-03-01T16:07:15;11.73;;;7.20;;
25023;SDS011;13033;50.936;5.334;2023-03-01T16:09:41;10.50;;;6.93;;
25023;SDS011;13033;50.936;5.334;2023-03-01T16:12:10;12.00;;;6.53;;
25023;SDS011;13033;50.936;5.334;2023-03-01T16:14:41;9.77;;;6.40;;
25023;SDS011;13033;50.936;5.334;2023-03-01T16:17:07;9.07;;;7.10;;
25023;SDS011;13033;50.936;5.334;2023-03-01T16:19:35;8.40;;;6.45;;
25023;SDS011;13033;50.936;5.334;2023-03-01T16:22:02;9.57;;;6.78;;
25023;SDS011;13033;50.936;5.334;2023-03-01T16:24:28;9.75;;;6.78;;
25023;SDS011;13033;50.936;5.334;2023-03-01T16:26:53;8.63;;;6.45;;
25023;SDS011;13033;50.936;5.334;2023-03-01T16:29:19;10.63;;;7.18;;
25023;SDS011;13033;50.936;5.334;2023-03-01T16:31:45;10.68;;;6.85;;
25023;SDS011;13033;50.936;5.334;2023-03-01T16:34:11;12.63;;;6.80;;
25023;SDS011;13033;50.936;5.334;2023-03-01T16:36:37;13.77;;;6.97;;
25023;SDS011;13033;50.936;5.334;2023-03-01T16:39:03;12.35;;;7.38;;
25023;SDS011;13033;50.936;5.334;2023-03-01T16:41:29;12.02;;;7.32;;
25023;SDS011;13033;50.936;5.334;2023-03-01T16:43:55;13.10;;;7.20;;
25023;SDS011;13033;50.936;5.334;2023-03-01T16:46:22;16.15;;;7.47;;
25023;SDS011;13033;50.936;5.334;2023-03-01T16:48:50;12.48;;;6.93;;
25023;SDS011;13033;50.936;5.334;2023-03-01T16:51:17;14.20;;;7.07;;
25023;SDS011;13033;50.936;5.334;2023-03-01T16:53:43;11.48;;;6.88;;
25023;SDS011;13033;50.936;5.334;2023-03-01T16:56:10;13.68;;;7.10;;
25023;SDS011;13033;50.936;5.334;2023-03-01T16:58:37;12.15;;;6.53;;
25023;SDS011;13033;50.936;5.334;2023-03-01T17:01:07;11.35;;;6.82;;
25023;SDS011;13033;50.936;5.334;2023-03-01T17:03:42;12.27;;;7.18;;